Time;durP1;ratioP1;P1;durP2;ratioP2;P2;SDS_P1;SDS_P2;PMS_P1;PMS_P2;Temp;Humidity;BMP_temperature;BMP_pressure;BME280_temperature;BME280_humidity;BME280_pressure;Samples;Min_cycle;Max_cycle;Signal;HPM_P1;HPM_P2
2022/04/03 00:01:17;;;;;;;6.60;2.60;;;;;;;;;;5111519;28;20477;-80
2022/04/03 00:03:44;;;;;;;4.95;2.20;;;;;;;;;;5092444;27;20066;-80
2022/04/03 00:06:10;;;;;;;4.90;2.55;;;;;;;;;;5083660;28;20040;-80
2022/04/03 00:08:37;;;;;;;7.65;2.40;;;;;;;;;;5111674;28;20048;-80
2022/04/03 00:11:04;;;;;;;5.38;2.58;;;;;;;;;;5092815;28;20097;-80
2022/04/03 00:13:30;;;;;;;6.85;2.47;;;;;;;;;;5093755;28;20975;-80
2022/04/03 00:15:56;;;;;;;6.25;2.60;;;;;;;;;;5110793;28;20087;-79
2022/04/03 00:18:23;;;;;;;6.97;2.70;;;;;;;;;;5087626;28;20037;-80
2022/04/03 00:20:49;;;;;;;6.95;2.60;;;;;;;;;;5090334;28;20083;-80
2022/04/03 00:23:15;;;;;;;6.35;2.45;;;;;;;;;;5110472;28;20072;-80
2022/04/03 00:25:42;;;;;;;6.85;2.70;;;;;;;;;;5092030;28;20075;-80
2022/04/03 00:28:08;;;;;;;10.13;2.83;;;;;;;;;;5092767;28;20109;-80
2022/04/03 00:30:35;;;;;;;5.85;2.58;;;;;;;;;;5092508;28;20084;-80
2022/04/03 00:33:01;;;;;;;6.78;3.00;;;;;;;;;;5092315;28;20059;-80
2022/04/03 00:35:28;;;;;;;7.63;2.60;;;;;;;;;;5092039;28;20109;-80
2022/04/03 00:37:54;;;;;;;7.10;2.70;;;;;;;;;;5110677;28;20048;-80
2022/04/03 00:40:23;;;;;;;10.02;3.10;;;;;;;;;;5108973;28;20091;-80
2022/04/03 00:42:50;;;;;;;9.10;2.97;;;;;;;;;;5110014;28;20070;-81
2022/04/03 00:45:17;;;;;;;7.38;3.28;;;;;;;;;;5093186;28;20071;-80
2022/04/03 00:47:43;;;;;;;6.45;2.70;;;;;;;;;;5108982;28;20078;-79
2022/04/03 00:50:10;;;;;;;7.45;3.13;;;;;;;;;;5089920;28;20056;-80
2022/04/03 00:52:36;;;;;;;5.85;2.55;;;;;;;;;;5080726;28;20052;-80
2022/04/03 00:55:03;;;;;;;10.95;3.35;;;;;;;;;;5091304;28;20058;-80
2022/04/03 00:57:30;;;;;;;7.63;2.67;;;;;;;;;;5072825;28;20693;-80
2022/04/03 00:59:57;;;;;;;5.43;2.50;;;;;;;;;;5092333;28;20115;-80
2022/04/03 01:02:23;;;;;;;8.55;3.08;;;;;;;;;;5109781;28;20052;-80
2022/04/03 01:04:50;;;;;;;6.60;2.92;;;;;;;;;;5072641;28;20110;-80
2022/04/03 01:07:17;;;;;;;7.43;3.00;;;;;;;;;;5072923;28;20126;-80
2022/04/03 01:09:44;;;;;;;7.90;3.08;;;;;;;;;;5090417;28;20526;-80
2022/04/03 01:12:11;;;;;;;6.00;2.85;;;;;;;;;;5091506;28;20032;-80
2022/04/03 01:14:38;;;;;;;6.82;2.80;;;;;;;;;;5085700;28;20056;-80
2022/04/03 01:17:05;;;;;;;8.57;3.03;;;;;;;;;;5091384;28;20147;-80
2022/04/03 01:19:31;;;;;;;6.55;2.92;;;;;;;;;;5091734;28;20048;-80
2022/04/03 01:21:58;;;;;;;7.88;2.88;;;;;;;;;;5088584;28;20508;-80
2022/04/03 01:24:25;;;;;;;5.60;2.65;;;;;;;;;;5109579;28;20178;-80
2022/04/03 01:26:52;;;;;;;6.55;2.70;;;;;;;;;;5110473;28;20105;-80
2022/04/03 01:29:18;;;;;;;8.40;3.00;;;;;;;;;;5091944;27;20051;-80
2022/04/03 01:31:46;;;;;;;6.97;3.13;;;;;;;;;;5112573;28;20049;-80
2022/04/03 01:34:13;;;;;;;12.13;3.13;;;;;;;;;;5113116;28;20055;-80
2022/04/03 01:36:39;;;;;;;8.65;2.55;;;;;;;;;;5095821;28;20087;-81
2022/04/03 01:39:06;;;;;;;7.55;2.97;;;;;;;;;;5114265;28;20548;-80
2022/04/03 01:41:32;;;;;;;9.65;2.90;;;;;;;;;;5119536;28;20056;-80
2022/04/03 01:43:58;;;;;;;9.82;3.00;;;;;;;;;;5119065;28;20067;-80
2022/04/03 01:46:26;;;;;;;8.07;3.10;;;;;;;;;;5101170;28;20052;-79
2022/04/03 01:48:52;;;;;;;5.45;2.90;;;;;;;;;;5096811;28;20056;-80
2022/04/03 01:51:19;;;;;;;8.57;2.90;;;;;;;;;;5115034;28;20052;-80
2022/04/03 01:53:45;;;;;;;6.50;2.55;;;;;;;;;;5095605;28;20113;-80
2022/04/03 01:56:11;;;;;;;9.52;2.88;;;;;;;;;;5108366;28;20052;-80
2022/04/03 01:58:38;;;;;;;8.77;2.60;;;;;;;;;;5113727;28;20087;-80
2022/04/03 02:01:04;;;;;;;6.28;2.63;;;;;;;;;;5115167;28;20576;-80
2022/04/03 02:03:31;;;;;;;6.70;2.83;;;;;;;;;;5095988;28;20825;-80
2022/04/03 02:05:57;;;;;;;8.63;3.10;;;;;;;;;;5114521;28;20079;-80
2022/04/03 02:08:24;;;;;;;6.63;2.55;;;;;;;;;;5094478;28;20517;-80
2022/04/03 02:10:50;;;;;;;8.75;3.20;;;;;;;;;;5092855;28;20063;-80
2022/04/03 02:13:17;;;;;;;7.30;2.95;;;;;;;;;;5112934;28;20060;-80
2022/04/03 02:15:43;;;;;;;7.38;3.25;;;;;;;;;;5092153;28;20082;-80
2022/04/03 02:18:10;;;;;;;10.40;3.10;;;;;;;;;;5106880;28;20083;-80
2022/04/03 02:20:37;;;;;;;9.20;3.13;;;;;;;;;;5096964;28;20084;-80
2022/04/03 02:23:04;;;;;;;8.55;3.20;;;;;;;;;;5094607;28;20847;-80
2022/04/03 02:25:30;;;;;;;9.52;3.45;;;;;;;;;;5112036;28;20129;-80
2022/04/03 02:27:59;;;;;;;5.85;2.42;;;;;;;;;;5096305;28;20055;-79
2022/04/03 02:30:26;;;;;;;5.72;2.58;;;;;;;;;;5096219;28;20097;-80
2022/04/03 02:32:52;;;;;;;6.50;2.45;;;;;;;;;;5096762;28;20632;-80
2022/04/03 02:35:19;;;;;;;7.00;2.50;;;;;;;;;;5095605;28;20078;-80
2022/04/03 02:37:46;;;;;;;5.43;2.10;;;;;;;;;;5094857;28;20052;-80
2022/04/03 02:40:14;;;;;;;7.53;2.50;;;;;;;;;;5112763;28;20110;-79
2022/04/03 02:42:40;;;;;;;7.05;2.83;;;;;;;;;;5113268;27;20071;-79
2022/04/03 02:45:07;;;;;;;7.95;2.50;;;;;;;;;;5097081;28;20073;-80
2022/04/03 02:47:34;;;;;;;5.00;2.30;;;;;;;;;;5095516;28;20114;-80
2022/04/03 02:50:00;;;;;;;6.30;2.60;;;;;;;;;;5112725;28;20109;-79
2022/04/03 02:52:26;;;;;;;7.57;2.60;;;;;;;;;;5094292;28;20082;-79
2022/04/03 02:54:53;;;;;;;10.27;3.15;;;;;;;;;;5095951;28;20052;-79
2022/04/03 02:57:19;;;;;;;6.18;2.28;;;;;;;;;;5095227;28;20052;-79
2022/04/03 02:59:46;;;;;;;8.43;2.75;;;;;;;;;;5094061;28;20091;-79
2022/04/03 03:02:12;;;;;;;7.88;2.95;;;;;;;;;;5090294;28;20109;-79
2022/04/03 03:04:38;;;;;;;7.38;2.70;;;;;;;;;;5101556;28;20103;-79
2022/04/03 03:07:05;;;;;;;6.68;2.90;;;;;;;;;;5093222;28;20048;-80
2022/04/03 03:09:32;;;;;;;6.60;2.65;;;;;;;;;;5112092;28;20052;-79
2022/04/03 03:11:59;;;;;;;7.35;3.20;;;;;;;;;;5109278;28;20064;-79
2022/04/03 03:14:27;;;;;;;6.43;2.80;;;;;;;;;;5088769;28;20083;-80
2022/04/03 03:16:54;;;;;;;6.05;2.50;;;;;;;;;;5111774;28;20096;-80
2022/04/03 03:19:20;;;;;;;5.30;2.20;;;;;;;;;;5111570;28;20044;-80
2022/04/03 03:21:47;;;;;;;4.18;2.20;;;;;;;;;;5095360;28;20055;-80
2022/04/03 03:24:13;;;;;;;5.55;2.33;;;;;;;;;;5112770;28;20054;-79
2022/04/03 03:26:40;;;;;;;5.20;2.03;;;;;;;;;;5095387;28;20106;-80
2022/04/03 03:29:06;;;;;;;7.22;2.30;;;;;;;;;;5091763;28;20048;-80
2022/04/03 03:31:33;;;;;;;6.72;2.05;;;;;;;;;;5095041;28;20942;-79
2022/04/03 03:33:59;;;;;;;8.48;2.90;;;;;;;;;;5112990;28;20139;-79
2022/04/03 03:36:26;;;;;;;7.25;2.28;;;;;;;;;;5094395;28;20090;-80
2022/04/03 03:38:52;;;;;;;5.20;2.30;;;;;;;;;;5112543;28;20087;-79
2022/04/03 03:41:18;;;;;;;6.95;2.70;;;;;;;;;;5093998;28;20044;-79
2022/04/03 03:43:45;;;;;;;5.07;1.95;;;;;;;;;;5094501;28;20036;-80
2022/04/03 03:46:11;;;;;;;7.80;2.40;;;;;;;;;;5103305;28;20053;-80
2022/04/03 03:48:38;;;;;;;8.57;2.35;;;;;;;;;;5106192;28;20070;-79
2022/04/03 03:51:04;;;;;;;5.72;2.33;;;;;;;;;;5111038;28;20095;-80
2022/04/03 03:53:31;;;;;;;7.47;2.10;;;;;;;;;;5112047;28;20121;-80
2022/04/03 03:55:57;;;;;;;5.82;2.50;;;;;;;;;;5093160;28;20048;-80
2022/04/03 03:58:24;;;;;;;7.30;2.25;;;;;;;;;;5094631;28;20052;-80
2022/04/03 04:00:50;;;;;;;5.75;2.28;;;;;;;;;;5093814;28;20101;-79
2022/04/03 04:03:17;;;;;;;5.35;2.03;;;;;;;;;;5107212;28;20059;-80
2022/04/03 04:05:43;;;;;;;4.85;1.77;;;;;;;;;;5090606;28;20051;-79
2022/04/03 04:08:10;;;;;;;7.18;2.63;;;;;;;;;;5089737;28;20052;-80
2022/04/03 04:10:36;;;;;;;7.40;2.30;;;;;;;;;;5105034;28;20060;-80
2022/04/03 04:13:03;;;;;;;5.32;2.42;;;;;;;;;;5108675;28;20914;-80
2022/04/03 04:15:30;;;;;;;5.45;2.47;;;;;;;;;;5086712;28;20048;-80
2022/04/03 04:17:56;;;;;;;5.75;2.38;;;;;;;;;;5104654;28;20565;-80
2022/04/03 04:20:23;;;;;;;7.85;2.30;;;;;;;;;;5109011;28;20103;-80
2022/04/03 04:22:50;;;;;;;5.35;2.22;;;;;;;;;;5088185;28;20130;-79
2022/04/03 04:25:17;;;;;;;5.63;2.03;;;;;;;;;;5093111;28;20052;-79
2022/04/03 04:27:44;;;;;;;3.97;1.95;;;;;;;;;;5094773;28;20056;-80
2022/04/03 04:30:11;;;;;;;5.13;1.90;;;;;;;;;;5091220;28;20044;-79
2022/04/03 04:32:38;;;;;;;6.68;2.20;;;;;;;;;;5112639;28;20807;-80
2022/04/03 04:35:05;;;;;;;6.70;2.35;;;;;;;;;;5093592;28;20076;-80
2022/04/03 04:37:31;;;;;;;7.05;2.33;;;;;;;;;;5089179;28;20056;-80
2022/04/03 04:39:58;;;;;;;4.88;2.05;;;;;;;;;;5093169;28;20052;-80
2022/04/03 04:42:24;;;;;;;5.70;2.38;;;;;;;;;;5093505;28;20576;-79
2022/04/03 04:44:51;;;;;;;7.35;2.97;;;;;;;;;;5111301;28;20059;-79
2022/04/03 04:47:17;;;;;;;6.72;2.20;;;;;;;;;;5093985;28;20083;-79
2022/04/03 04:49:43;;;;;;;5.38;2.40;;;;;;;;;;5112208;28;20141;-79
2022/04/03 04:52:10;;;;;;;7.38;2.55;;;;;;;;;;5094172;28;20097;-79
2022/04/03 04:54:36;;;;;;;6.88;2.05;;;;;;;;;;5103645;28;20113;-79
2022/04/03 04:57:03;;;;;;;4.70;2.15;;;;;;;;;;5110672;28;20052;-79
2022/04/03 04:59:31;;;;;;;6.28;2.00;;;;;;;;;;5110536;28;20101;-80
2022/04/03 05:01:59;;;;;;;6.05;2.15;;;;;;;;;;5110668;28;20048;-79
2022/04/03 05:04:26;;;;;;;7.93;2.53;;;;;;;;;;5107509;28;20119;-79
2022/04/03 05:06:52;;;;;;;5.97;1.92;;;;;;;;;;5088521;28;20060;-79
2022/04/03 05:09:19;;;;;;;6.53;2.53;;;;;;;;;;5112505;28;20056;-79
2022/04/03 05:11:46;;;;;;;5.50;2.28;;;;;;;;;;5111879;28;20117;-79
2022/04/03 05:14:13;;;;;;;7.22;2.15;;;;;;;;;;5110901;28;20093;-79
2022/04/03 05:16:40;;;;;;;6.13;2.40;;;;;;;;;;5105767;28;20104;-79
2022/04/03 05:19:07;;;;;;;6.22;1.90;;;;;;;;;;5106417;27;20059;-79
2022/04/03 05:21:33;;;;;;;6.25;1.95;;;;;;;;;;5103875;28;20056;-79
2022/04/03 05:24:00;;;;;;;6.70;2.08;;;;;;;;;;5111695;28;20135;-79
2022/04/03 05:26:26;;;;;;;5.80;2.53;;;;;;;;;;5084181;28;20497;-79
2022/04/03 05:28:53;;;;;;;7.35;2.20;;;;;;;;;;5094511;28;20052;-79
2022/04/03 05:31:19;;;;;;;6.28;2.28;;;;;;;;;;5093561;28;20079;-79
2022/04/03 05:33:45;;;;;;;5.65;2.53;;;;;;;;;;5091150;28;20585;-79
2022/04/03 05:36:12;;;;;;;5.90;2.60;;;;;;;;;;5110005;28;20134;-79
2022/04/03 05:38:38;;;;;;;6.35;2.35;;;;;;;;;;5094092;28;20131;-79
2022/04/03 05:41:05;;;;;;;6.75;2.80;;;;;;;;;;5087183;28;20535;-79
2022/04/03 05:43:31;;;;;;;6.65;2.13;;;;;;;;;;5093557;28;20133;-79
2022/04/03 05:45:57;;;;;;;6.05;2.65;;;;;;;;;;5086017;28;20056;-79
2022/04/03 05:48:24;;;;;;;6.53;2.33;;;;;;;;;;5110186;28;20059;-80
2022/04/03 05:50:50;;;;;;;6.80;2.63;;;;;;;;;;5102502;28;20944;-79
2022/04/03 05:53:17;;;;;;;6.72;3.00;;;;;;;;;;5087668;28;20060;-79
2022/04/03 05:55:43;;;;;;;6.40;2.70;;;;;;;;;;5092634;28;20122;-79
2022/04/03 05:58:09;;;;;;;6.47;2.70;;;;;;;;;;5109180;28;20056;-79
2022/04/03 06:00:36;;;;;;;7.60;3.17;;;;;;;;;;5102238;28;20696;-79
2022/04/03 06:03:02;;;;;;;6.63;2.75;;;;;;;;;;5104925;28;22498;-80
2022/04/03 06:05:30;;;;;;;7.13;2.70;;;;;;;;;;5110318;27;20082;-79
2022/04/03 06:07:59;;;;;;;6.53;2.95;;;;;;;;;;5107438;28;20059;-79
2022/04/03 06:10:27;;;;;;;7.82;2.92;;;;;;;;;;5094129;28;20052;-80
2022/04/03 06:12:58;;;;;;;11.80;3.70;;;;;;;;;;5107668;28;20143;-80
2022/04/03 06:15:25;;;;;;;8.85;3.40;;;;;;;;;;5089861;28;20775;-79
2022/04/03 06:17:51;;;;;;;10.18;3.97;;;;;;;;;;5111494;27;20090;-79
2022/04/03 06:20:21;;;;;;;9.13;4.57;;;;;;;;;;5087838;28;20056;-79
2022/04/03 06:22:48;;;;;;;9.57;4.43;;;;;;;;;;5111162;28;20091;-78
2022/04/03 06:25:14;;;;;;;8.65;4.60;;;;;;;;;;5100010;28;20079;-79
2022/04/03 06:27:41;;;;;;;9.25;4.35;;;;;;;;;;5119878;28;20541;-80
2022/04/03 06:30:08;;;;;;;9.45;4.40;;;;;;;;;;5099850;28;20052;-79
2022/04/03 06:32:34;;;;;;;10.65;5.05;;;;;;;;;;5100744;28;20056;-79
2022/04/03 06:35:01;;;;;;;11.60;4.93;;;;;;;;;;5100914;28;20090;-79
2022/04/03 06:37:27;;;;;;;10.82;4.85;;;;;;;;;;5101923;28;20045;-79
2022/04/03 06:39:54;;;;;;;10.48;5.35;;;;;;;;;;5101065;28;20044;-79
2022/04/03 06:42:20;;;;;;;10.75;5.82;;;;;;;;;;5101289;28;20044;-80
2022/04/03 06:44:46;;;;;;;13.00;5.90;;;;;;;;;;5102023;28;20052;-79
2022/04/03 06:47:13;;;;;;;12.30;6.47;;;;;;;;;;5105158;28;20036;-81
2022/04/03 06:49:40;;;;;;;15.60;6.63;;;;;;;;;;5096072;28;20052;-80
2022/04/03 06:52:08;;;;;;;15.13;6.88;;;;;;;;;;5129270;28;20825;-80
2022/04/03 06:54:35;;;;;;;13.20;7.30;;;;;;;;;;5110916;28;20110;-80
2022/04/03 06:57:02;;;;;;;13.77;7.95;;;;;;;;;;5103970;28;21632;-78
2022/04/03 06:59:29;;;;;;;16.88;8.38;;;;;;;;;;5107294;28;20134;-79
2022/04/03 07:01:56;;;;;;;15.45;7.97;;;;;;;;;;5108475;28;20101;-78
2022/04/03 07:04:22;;;;;;;12.75;7.40;;;;;;;;;;5109373;28;20048;-78
2022/04/03 07:06:48;;;;;;;12.07;6.70;;;;;;;;;;5093646;28;20524;-79
2022/04/03 07:09:15;;;;;;;13.50;6.55;;;;;;;;;;5092298;28;20068;-78
2022/04/03 07:11:41;;;;;;;12.23;6.57;;;;;;;;;;5110326;28;20568;-78
2022/04/03 07:14:07;;;;;;;11.98;6.75;;;;;;;;;;5107407;28;20052;-79
2022/04/03 07:16:34;;;;;;;10.02;5.80;;;;;;;;;;5110059;28;20052;-78
2022/04/03 07:19:01;;;;;;;11.70;5.75;;;;;;;;;;5090466;28;20048;-79
2022/04/03 07:21:27;;;;;;;11.80;5.57;;;;;;;;;;5099572;28;20146;-78
2022/04/03 07:23:53;;;;;;;10.65;5.78;;;;;;;;;;5103612;28;20074;-79
2022/04/03 07:26:20;;;;;;;7.38;4.63;;;;;;;;;;5089617;28;20052;-79
2022/04/03 07:28:46;;;;;;;7.43;4.50;;;;;;;;;;5091902;28;20087;-78
2022/04/03 07:31:12;;;;;;;13.52;4.85;;;;;;;;;;5091808;28;20083;-79
2022/04/03 07:33:39;;;;;;;9.65;5.20;;;;;;;;;;5092374;28;20139;-79
2022/04/03 07:36:05;;;;;;;7.68;4.50;;;;;;;;;;5088163;28;20139;-78
2022/04/03 07:38:32;;;;;;;9.23;4.72;;;;;;;;;;5103952;27;20084;-79
2022/04/03 07:41:03;;;;;;;;;;;;;;;;;;5091201;28;20054;-79
2022/04/03 07:43:29;;;;;;;8.38;3.95;;;;;;;;;;5094945;28;45247;-78
2022/04/03 07:45:57;;;;;;;7.40;3.78;;;;;;;;;;5111703;28;20578;-79
2022/04/03 07:48:23;;;;;;;7.53;3.78;;;;;;;;;;5096247;28;20052;-78
2022/04/03 07:50:51;;;;;;;8.45;3.55;;;;;;;;;;5116656;28;20129;-78
2022/04/03 07:53:17;;;;;;;7.60;3.55;;;;;;;;;;5103038;28;20043;-79
2022/04/03 07:55:44;;;;;;;8.13;3.67;;;;;;;;;;5100142;28;20052;-78
2022/04/03 07:58:11;;;;;;;7.95;3.13;;;;;;;;;;5109628;28;20145;-79
2022/04/03 08:00:37;;;;;;;7.75;3.00;;;;;;;;;;5090215;28;20056;-78
2022/04/03 08:03:03;;;;;;;6.13;3.20;;;;;;;;;;5091920;28;20052;-79
2022/04/03 08:05:30;;;;;;;7.95;3.28;;;;;;;;;;5106408;28;20055;-79
2022/04/03 08:07:56;;;;;;;6.63;3.30;;;;;;;;;;5090734;28;20098;-78
2022/04/03 08:10:23;;;;;;;8.23;3.20;;;;;;;;;;5091686;28;20098;-79
2022/04/03 08:12:50;;;;;;;5.00;2.50;;;;;;;;;;5105707;28;20549;-79
2022/04/03 08:15:18;;;;;;;6.65;2.63;;;;;;;;;;5082411;28;20086;-78
2022/04/03 08:17:45;;;;;;;7.22;2.92;;;;;;;;;;5090873;28;20056;-79
2022/04/03 08:20:12;;;;;;;7.38;2.95;;;;;;;;;;5108492;28;20044;-78
2022/04/03 08:22:39;;;;;;;6.80;3.15;;;;;;;;;;5107938;28;20504;-78
2022/04/03 08:25:07;;;;;;;6.05;2.60;;;;;;;;;;5090750;28;20055;-78
2022/04/03 08:27:43;;;;;;;5.07;2.47;;;;;;;;;;5089981;28;20130;-78
2022/04/03 08:30:11;;;;;;;5.13;2.17;;;;;;;;;;5106469;28;20549;-79
2022/04/03 08:32:37;;;;;;;4.85;1.70;;;;;;;;;;5103612;28;20110;-79
2022/04/03 08:35:04;;;;;;;5.88;1.75;;;;;;;;;;5109860;28;20036;-78
2022/04/03 08:37:30;;;;;;;7.72;2.47;;;;;;;;;;5080646;28;20056;-79
2022/04/03 08:39:56;;;;;;;4.82;1.80;;;;;;;;;;5106330;28;20151;-78
2022/04/03 08:42:23;;;;;;;4.97;2.00;;;;;;;;;;5091065;28;20499;-79
2022/04/03 08:44:49;;;;;;;5.55;1.80;;;;;;;;;;5109128;28;20101;-78
2022/04/03 08:47:17;;;;;;;7.88;2.00;;;;;;;;;;5107528;28;20105;-78
2022/04/03 08:49:44;;;;;;;5.82;2.53;;;;;;;;;;5109256;28;20109;-78
2022/04/03 08:52:15;;;;;;;6.00;1.92;;;;;;;;;;5088158;28;20530;-77
2022/04/03 08:54:41;;;;;;;5.90;1.30;;;;;;;;;;5088520;28;20106;-78
2022/04/03 08:57:08;;;;;;;6.18;1.20;;;;;;;;;;5089693;28;20557;-78
2022/04/03 08:59:36;;;;;;;3.00;1.10;;;;;;;;;;5106891;28;20089;-78
2022/04/03 09:02:03;;;;;;;3.83;1.10;;;;;;;;;;5089704;28;20059;-78
2022/04/03 09:04:31;;;;;;;2.92;0.98;;;;;;;;;;5105495;28;20114;-78
2022/04/03 09:06:58;;;;;;;3.53;1.05;;;;;;;;;;5089860;28;20052;-78
2022/04/03 09:09:28;;;;;;;3.33;1.10;;;;;;;;;;5107929;28;20048;-78
2022/04/03 09:12:15;;;;;;;2.80;0.90;;;;;;;;;;5104965;28;20113;-78
2022/04/03 09:14:46;;;;;;;2.47;0.80;;;;;;;;;;5086680;28;20051;-78
2022/04/03 09:17:13;;;;;;;;;;;;;;;;;;5090695;28;20055;-78
2022/04/03 09:19:40;;;;;;;5.30;1.73;;;;;;;;;;5103164;28;45509;-78
2022/04/03 09:22:06;;;;;;;2.53;1.00;;;;;;;;;;5090235;28;20541;-80
2022/04/03 09:24:45;;;;;;;4.78;1.20;;;;;;;;;;5084064;28;21637;-78
2022/04/03 09:27:12;;;;;;;7.03;1.70;;;;;;;;;;5086564;28;20141;-78
2022/04/03 09:29:44;;;;;;;5.40;1.40;;;;;;;;;;5099662;28;21451;-78
2022/04/03 09:32:11;;;;;;;3.40;1.30;;;;;;;;;;5106974;27;20087;-78
2022/04/03 09:34:38;;;;;;;5.13;1.27;;;;;;;;;;5107609;28;20055;-78
2022/04/03 09:37:05;;;;;;;4.30;1.02;;;;;;;;;;5090359;28;20471;-78
2022/04/03 09:39:32;;;;;;;6.57;2.28;;;;;;;;;;5098625;28;20052;-78
2022/04/03 09:42:05;;;;;;;4.68;1.23;;;;;;;;;;5091207;28;20048;-78
2022/04/03 09:44:32;;;;;;;2.60;1.00;;;;;;;;;;5107850;28;20079;-78
2022/04/03 09:47:17;;;;;;;4.47;1.30;;;;;;;;;;5087356;28;20049;-78
2022/04/03 09:49:44;;;;;;;4.30;0.95;;;;;;;;;;5108872;28;20130;-79
2022/04/03 09:52:35;;;;;;;4.03;1.73;;;;;;;;;;5112143;27;20082;-79
2022/04/03 09:55:24;;;;;;;4.88;1.75;;;;;;;;;;5112099;28;20052;-78
2022/04/03 09:58:03;;;;;;;6.53;2.25;;;;;;;;;;5093756;28;20082;-78
2022/04/03 10:00:45;;;;;;;6.15;2.40;;;;;;;;;;5103899;28;20055;-79
2022/04/03 10:03:12;;;;;;;5.75;1.88;;;;;;;;;;5094287;28;20063;-79
2022/04/03 10:05:39;;;;;;;5.22;1.42;;;;;;;;;;5089325;28;20069;-79
2022/04/03 10:08:05;;;;;;;5.28;1.48;;;;;;;;;;5114141;28;20052;-79
2022/04/03 10:10:33;;;;;;;3.28;0.73;;;;;;;;;;5112260;28;20572;-78
2022/04/03 10:13:00;;;;;;;3.78;0.80;;;;;;;;;;5111820;28;20052;-79
2022/04/03 10:15:27;;;;;;;3.70;1.77;;;;;;;;;;5090918;28;20101;-79
2022/04/03 10:17:54;;;;;;;3.90;1.10;;;;;;;;;;5091731;28;20056;-78
2022/04/03 10:20:24;;;;;;;5.00;1.23;;;;;;;;;;5110553;27;20066;-78
2022/04/03 10:22:51;;;;;;;7.40;1.40;;;;;;;;;;5110225;28;20066;-79
2022/04/03 10:25:23;;;;;;;5.45;1.80;;;;;;;;;;5087722;28;20146;-79
2022/04/03 10:27:51;;;;;;;3.63;1.42;;;;;;;;;;5109479;28;20103;-79
2022/04/03 10:30:32;;;;;;;6.55;1.80;;;;;;;;;;5089026;28;20048;-79
2022/04/03 10:32:59;;;;;;;4.95;1.90;;;;;;;;;;5103994;28;20143;-79
2022/04/03 10:35:26;;;;;;;5.07;1.98;;;;;;;;;;5110611;28;20048;-79
2022/04/03 10:38:05;;;;;;;5.35;1.77;;;;;;;;;;5093170;28;20052;-79
2022/04/03 10:40:33;;;;;;;4.32;1.58;;;;;;;;;;5091837;28;20056;-79
2022/04/03 10:43:02;;;;;;;3.95;1.80;;;;;;;;;;5102609;28;20055;-79
2022/04/03 10:45:29;;;;;;;4.93;1.50;;;;;;;;;;5091777;28;20070;-79
2022/04/03 10:48:15;;;;;;;4.18;1.40;;;;;;;;;;5093901;28;20048;-79
2022/04/03 10:50:56;;;;;;;3.47;1.00;;;;;;;;;;5094178;28;20067;-79
2022/04/03 10:53:24;;;;;;;2.75;1.00;;;;;;;;;;5104034;28;20052;-79
2022/04/03 10:55:55;;;;;;;4.97;1.17;;;;;;;;;;5092899;28;20060;-79
2022/04/03 10:58:21;;;;;;;;;;;;;;;;;;5109929;28;20128;-79
2022/04/03 11:00:49;;;;;;;3.38;0.90;;;;;;;;;;5092926;28;45053;-79
2022/04/03 11:03:18;;;;;;;2.60;0.82;;;;;;;;;;5109967;27;20971;-79
2022/04/03 11:05:48;;;;;;;2.85;0.95;;;;;;;;;;5104127;28;20592;-79
2022/04/03 11:08:16;;;;;;;2.97;1.17;;;;;;;;;;5110723;28;20572;-79
2022/04/03 11:10:54;;;;;;;4.10;1.02;;;;;;;;;;5110151;28;20060;-79
2022/04/03 11:13:37;;;;;;;2.08;0.65;;;;;;;;;;5089685;28;20076;-79
2022/04/03 11:16:05;;;;;;;3.83;0.90;;;;;;;;;;5104800;28;20087;-78
2022/04/03 11:18:41;;;;;;;4.88;1.00;;;;;;;;;;5111720;28;20060;-79
2022/04/03 11:21:14;;;;;;;3.08;0.70;;;;;;;;;;5110360;28;20133;-79
2022/04/03 11:23:42;;;;;;;3.05;0.80;;;;;;;;;;5103534;28;20048;-79
2022/04/03 11:26:08;;;;;;;2.72;0.80;;;;;;;;;;5103641;28;20056;-79
2022/04/03 11:28:35;;;;;;;1.80;0.70;;;;;;;;;;5093199;28;20121;-79
2022/04/03 11:31:02;;;;;;;3.00;0.80;;;;;;;;;;5104150;28;20056;-79
2022/04/03 11:33:29;;;;;;;1.85;0.50;;;;;;;;;;5112089;28;20056;-79
2022/04/03 11:36:00;;;;;;;1.60;0.50;;;;;;;;;;5093708;28;20135;-79
2022/04/03 11:38:32;;;;;;;2.45;0.70;;;;;;;;;;5093681;28;20151;-79
2022/04/03 11:41:00;;;;;;;4.15;0.85;;;;;;;;;;5094048;28;20055;-79
2022/04/03 11:43:27;;;;;;;5.38;1.88;;;;;;;;;;5104268;28;20079;-79
2022/04/03 11:45:55;;;;;;;4.32;0.75;;;;;;;;;;5111282;28;20052;-79
2022/04/03 11:48:24;;;;;;;2.00;0.60;;;;;;;;;;5094110;28;20044;-79
2022/04/03 11:51:06;;;;;;;2.42;0.93;;;;;;;;;;5093812;28;20067;-80
2022/04/03 11:53:32;;;;;;;1.77;0.50;;;;;;;;;;5093170;28;20082;-79
2022/04/03 11:56:10;;;;;;;1.73;0.60;;;;;;;;;;5107152;27;20052;-79
2022/04/03 11:58:37;;;;;;;1.98;0.70;;;;;;;;;;5093597;28;20044;-79
2022/04/03 12:01:03;;;;;;;4.30;1.10;;;;;;;;;;5093551;28;20221;-79
2022/04/03 12:03:33;;;;;;;4.45;1.30;;;;;;;;;;5092909;28;20098;-79
2022/04/03 12:06:10;;;;;;;3.25;1.00;;;;;;;;;;5091449;28;20110;-79
2022/04/03 12:08:46;;;;;;;4.53;1.38;;;;;;;;;;5107899;28;20106;-79
2022/04/03 12:11:25;;;;;;;3.58;0.98;;;;;;;;;;5091883;28;20040;-79
2022/04/03 12:13:55;;;;;;;3.85;1.20;;;;;;;;;;5100541;28;20511;-79
2022/04/03 12:16:24;;;;;;;3.42;1.05;;;;;;;;;;5091412;28;20086;-79
2022/04/03 12:19:01;;;;;;;2.88;1.25;;;;;;;;;;5109209;28;20060;-79
2022/04/03 12:21:36;;;;;;;3.22;1.13;;;;;;;;;;5092218;28;20114;-79
2022/04/03 12:24:06;;;;;;;6.38;2.17;;;;;;;;;;5110250;28;20028;-79
2022/04/03 12:26:38;;;;;;;4.03;1.33;;;;;;;;;;5109814;28;20059;-79
2022/04/03 12:29:05;;;;;;;3.85;1.27;;;;;;;;;;5108897;28;20110;-79
2022/04/03 12:31:33;;;;;;;2.83;1.17;;;;;;;;;;5086620;28;20053;-79
2022/04/03 12:34:06;;;;;;;3.42;1.20;;;;;;;;;;5091770;28;20055;-78
2022/04/03 12:36:48;;;;;;;3.55;1.25;;;;;;;;;;5091797;28;20122;-78
2022/04/03 12:39:33;;;;;;;3.13;1.10;;;;;;;;;;5091645;28;20110;-79
2022/04/03 12:42:09;;;;;;;3.83;1.48;;;;;;;;;;5089414;28;20048;-78
2022/04/03 12:44:44;;;;;;;3.05;1.08;;;;;;;;;;5100868;28;20863;-78
2022/04/03 12:47:11;;;;;;;5.45;1.77;;;;;;;;;;5085915;28;20102;-79
2022/04/03 12:49:40;;;;;;;4.28;1.30;;;;;;;;;;5099866;28;20060;-79
2022/04/03 12:52:06;;;;;;;6.03;1.10;;;;;;;;;;5092184;28;20091;-78
2022/04/03 12:54:40;;;;;;;3.00;1.30;;;;;;;;;;5092577;28;20056;-79
2022/04/03 13:00:05;;;;;;;4.47;1.20;;;;;;;;;;5109111;28;20087;-79
2022/04/03 13:02:41;;;;;;;2.67;0.90;;;;;;;;;;5087375;28;20056;-78
2022/04/03 13:05:12;;;;;;;5.85;1.30;;;;;;;;;;5078463;28;20131;-79
2022/04/03 13:07:41;;;;;;;4.93;1.17;;;;;;;;;;5083000;28;20059;-79
2022/04/03 13:10:15;;;;;;;4.25;1.50;;;;;;;;;;5087889;28;20056;-79
2022/04/03 13:12:42;;;;;;;5.75;1.17;;;;;;;;;;5105135;28;20048;-79
2022/04/03 13:15:09;;;;;;;7.32;1.38;;;;;;;;;;5102577;28;20105;-79
2022/04/03 13:17:35;;;;;;;3.58;1.05;;;;;;;;;;5108334;28;20104;-78
2022/04/03 13:20:02;;;;;;;3.28;1.30;;;;;;;;;;5081301;28;20052;-79
2022/04/03 13:22:28;;;;;;;3.72;1.10;;;;;;;;;;5095005;28;20129;-79
2022/04/03 13:24:54;;;;;;;4.43;1.33;;;;;;;;;;5079047;28;20052;-79
2022/04/03 13:27:21;;;;;;;2.53;1.20;;;;;;;;;;5106617;27;20102;-79
2022/04/03 13:29:47;;;;;;;3.25;1.10;;;;;;;;;;5089637;28;20063;-79
2022/04/03 13:32:14;;;;;;;3.20;0.90;;;;;;;;;;5097677;28;20542;-79
2022/04/03 13:34:40;;;;;;;2.30;0.80;;;;;;;;;;5084380;28;20771;-79
2022/04/03 13:37:06;;;;;;;2.83;0.80;;;;;;;;;;5097616;28;20063;-79
2022/04/03 13:39:33;;;;;;;4.32;0.90;;;;;;;;;;5101984;28;20122;-78
2022/04/03 13:42:03;;;;;;;2.45;0.80;;;;;;;;;;5085353;28;20086;-79
2022/04/03 13:44:29;;;;;;;3.05;0.80;;;;;;;;;;5099923;28;20060;-78
2022/04/03 13:46:56;;;;;;;3.80;1.33;;;;;;;;;;5102844;28;20088;-79
2022/04/03 13:49:24;;;;;;;5.25;1.38;;;;;;;;;;5090005;28;20074;-78
2022/04/03 13:51:50;;;;;;;6.43;1.60;;;;;;;;;;5086866;28;20150;-79
2022/04/03 13:54:17;;;;;;;2.53;0.80;;;;;;;;;;5102621;28;20063;-78
2022/04/03 13:56:44;;;;;;;2.13;0.68;;;;;;;;;;5087463;28;20083;-79
2022/04/03 13:59:10;;;;;;;1.85;0.80;;;;;;;;;;5092581;28;20101;-79
2022/04/03 14:01:37;;;;;;;1.55;0.55;;;;;;;;;;5088388;28;20841;-78
2022/04/03 14:04:05;;;;;;;5.57;2.75;;;;;;;;;;5103889;28;20133;-78
2022/04/03 14:06:31;;;;;;;4.15;1.20;;;;;;;;;;5090593;28;20052;-79
2022/04/03 14:08:58;;;;;;;3.20;0.70;;;;;;;;;;5090497;28;20109;-78
2022/04/03 14:11:24;;;;;;;1.85;0.80;;;;;;;;;;5084039;28;20048;-79
2022/04/03 14:13:51;;;;;;;3.22;1.40;;;;;;;;;;5097038;28;20048;-79
2022/04/03 14:16:17;;;;;;;3.45;1.20;;;;;;;;;;5104818;28;20204;-78
2022/04/03 14:18:44;;;;;;;3.08;0.90;;;;;;;;;;5093977;28;20036;-79
2022/04/03 14:21:10;;;;;;;1.70;0.70;;;;;;;;;;5087656;27;20101;-79
2022/04/03 14:23:36;;;;;;;4.18;1.02;;;;;;;;;;5089919;28;20091;-79
2022/04/03 14:26:04;;;;;;;2.17;0.80;;;;;;;;;;5111470;28;20056;-79
2022/04/03 14:28:31;;;;;;;5.13;0.98;;;;;;;;;;5093459;28;20106;-79
2022/04/03 14:30:58;;;;;;;2.63;0.90;;;;;;;;;;5108802;27;20113;-79
2022/04/03 14:33:24;;;;;;;3.67;0.80;;;;;;;;;;5108822;28;20147;-79
2022/04/03 14:35:51;;;;;;;1.85;0.68;;;;;;;;;;5091911;28;20083;-79
2022/04/03 14:38:23;;;;;;;2.92;0.73;;;;;;;;;;5092337;28;20052;-79
2022/04/03 14:40:50;;;;;;;2.38;0.80;;;;;;;;;;5092548;28;20087;-79
2022/04/03 14:43:16;;;;;;;3.75;1.20;;;;;;;;;;5093511;28;20087;-79
2022/04/03 14:45:46;;;;;;;2.95;1.00;;;;;;;;;;5094328;28;20070;-79
2022/04/03 14:48:13;;;;;;;3.03;0.88;;;;;;;;;;5092630;28;20082;-79
2022/04/03 14:50:40;;;;;;;3.13;0.90;;;;;;;;;;5089862;28;20110;-79